Time;durP1;ratioP1;P1;durP2;ratioP2;P2;SDS_P1;SDS_P2;PMS_P1;PMS_P2;Temp;Humidity;BMP_temperature;BMP_pressure;BME280_temperature;BME280_humidity;BME280_pressure;Samples;Min_cycle;Max_cycle;Signal;HPM_P1;HPM_P2
2023/02/14 00:01:50;;;;;;;35.90;22.83;;;;;;;6.79;55.10;100449.53;5091771;28;20016;-46
2023/02/14 00:04:19;;;;;;;36.25;23.95;;;;;;;6.99;55.04;100452.22;5091753;28;20118;-46
2023/02/14 00:06:46;;;;;;;34.03;23.50;;;;;;;7.18;54.68;100446.19;5093222;28;20119;-46
2023/02/14 00:09:16;;;;;;;39.67;25.13;;;;;;;7.16;53.48;100442.91;5092973;28;20405;-46
2023/02/14 00:11:44;;;;;;;31.40;23.40;;;;;;;7.06;53.69;100440.25;5091549;28;20027;-46
2023/02/14 00:17:11;;;;;;;35.17;23.63;;;;;;;7.24;54.66;100429.16;5093058;28;20467;-47
2023/02/14 00:19:53;;;;;;;34.45;23.80;;;;;;;7.43;53.87;100431.81;5091403;28;20028;-47
2023/02/14 00:22:34;;;;;;;32.05;22.00;;;;;;;7.37;53.05;100427.94;5091278;28;20034;-47
2023/02/14 00:25:01;;;;;;;35.80;23.35;;;;;;;7.25;52.99;100430.84;5092685;28;20024;-46
2023/02/14 00:27:34;;;;;;;37.90;22.90;;;;;;;6.98;53.22;100422.69;5091284;28;20074;-47
2023/02/14 00:30:11;;;;;;;33.78;22.25;;;;;;;6.82;53.79;100417.13;5092565;28;20069;-46
2023/02/14 00:32:45;;;;;;;35.72;21.85;;;;;;;6.68;53.63;100415.72;5091165;28;20519;-47
2023/02/14 00:35:19;;;;;;;34.60;22.92;;;;;;;6.63;54.95;100423.13;5091099;28;20111;-47
2023/02/14 00:37:46;;;;;;;35.33;22.48;;;;;;;6.70;55.10;100418.19;5090963;28;20020;-47
2023/02/14 00:40:15;;;;;;;33.28;22.25;;;;;;;6.64;55.14;100410.88;5089733;28;20095;-47
2023/02/14 00:42:53;;;;;;;31.33;21.98;;;;;;;6.53;55.17;100422.25;5091039;28;20024;-47
2023/02/14 00:45:38;;;;;;;41.15;25.02;;;;;;;6.50;55.76;100412.91;5092267;28;20034;-47
2023/02/14 00:48:10;;;;;;;40.53;24.77;;;;;;;6.40;55.22;100412.88;5090992;28;20106;-47
2023/02/14 00:50:44;;;;;;;38.88;26.08;;;;;;;6.34;55.79;100409.97;5092130;28;20055;-46
2023/02/14 00:53:10;;;;;;;38.00;24.50;;;;;;;6.23;55.49;100407.44;5092147;28;20023;-46
2023/02/14 00:55:43;;;;;;;32.95;25.02;;;;;;;6.24;55.75;100409.06;5090801;28;20397;-47
2023/02/14 00:58:15;;;;;;;32.38;24.05;;;;;;;6.29;56.97;100404.31;5090737;28;20020;-46
2023/02/14 01:00:57;;;;;;;35.85;23.83;;;;;;;6.33;56.09;100403.09;5092082;28;20141;-47
2023/02/14 01:03:38;;;;;;;35.42;25.08;;;;;;;6.31;56.09;100405.81;5092033;28;20447;-47
2023/02/14 01:06:15;;;;;;;40.05;22.80;;;;;;;6.25;56.99;100401.13;5090706;28;20039;-47
2023/02/14 01:08:59;;;;;;;34.92;25.15;;;;;;;6.31;56.80;100407.59;5092256;28;20046;-47
2023/02/14 01:11:31;;;;;;;33.35;21.30;;;;;;;6.34;56.43;100409.97;5090562;28;20382;-46
2023/02/14 01:14:01;;;;;;;33.13;22.23;;;;;;;6.33;56.05;100405.69;5090574;28;20052;-47
2023/02/14 01:16:31;;;;;;;32.78;21.85;;;;;;;6.27;55.50;100406.22;5090556;28;20444;-47
2023/02/14 01:19:05;;;;;;;33.05;23.02;;;;;;;6.18;56.26;100405.22;5091926;28;20019;-48
2023/02/14 01:21:41;;;;;;;31.95;22.52;;;;;;;6.23;56.88;100410.03;5090503;28;20040;-46
2023/02/14 01:24:14;;;;;;;33.47;22.38;;;;;;;6.45;56.83;100407.25;5091875;28;20103;-47
2023/02/14 01:26:42;;;;;;;44.88;23.45;;;;;;;6.50;55.76;100401.63;5091725;28;20374;-47
2023/02/14 01:29:19;;;;;;;30.08;21.08;;;;;;;6.35;55.38;100407.22;5091794;28;20138;-48
2023/02/14 01:31:58;;;;;;;35.25;21.75;;;;;;;6.19;55.31;100410.28;5091698;28;20031;-47
2023/02/14 01:34:46;;;;;;;48.25;22.23;;;;;;;6.08;55.89;100410.38;5091730;28;20114;-46
2023/02/14 01:37:26;;;;;;;36.65;21.65;;;;;;;6.08;56.07;100409.56;5073659;28;20024;-48
2023/02/14 01:39:54;;;;;;;32.40;21.92;;;;;;;6.07;55.80;100406.09;5091715;28;20074;-47
2023/02/14 01:42:33;;;;;;;33.05;21.80;;;;;;;5.99;55.73;100408.53;5090880;28;20047;-47
2023/02/14 01:45:24;;;;;;;32.38;22.95;;;;;;;5.85;56.45;100409.63;5090310;28;20032;-46
2023/02/14 01:48:10;;;;;;;35.70;22.83;;;;;;;5.80;56.19;100414.41;5091672;28;20051;-47
2023/02/14 01:53:35;;;;;;;35.70;23.20;;;;;;;5.94;57.42;100397.66;5094271;28;20089;-46
2023/02/14 01:56:46;;;;;;;36.20;22.88;;;;;;;6.12;57.30;100403.94;5094108;28;20024;-47
2023/02/14 01:59:23;;;;;;;30.33;24.27;;;;;;;6.08;56.58;100399.94;5094127;28;20036;-46
2023/02/14 02:01:52;;;;;;;32.33;22.50;;;;;;;5.98;57.50;100405.09;5094176;28;20466;-46
2023/02/14 02:05:14;;;;;;;32.63;22.15;;;;;;;5.91;57.35;100400.50;5095270;28;20115;-47
2023/02/14 02:08:01;;;;;;;37.45;23.88;;;;;;;5.89;57.07;100407.63;5095308;28;20064;-47
2023/02/14 02:10:39;;;;;;;35.50;24.88;;;;;;;5.75;57.75;100406.97;5093890;28;20027;-47
2023/02/14 02:13:20;;;;;;;36.15;23.33;;;;;;;5.87;58.09;100405.13;5095067;28;20047;-47
2023/02/14 02:16:22;;;;;;;30.42;22.48;;;;;;;5.99;58.09;100398.09;5093872;28;20024;-47
2023/02/14 02:19:39;;;;;;;31.60;23.08;;;;;;;6.07;57.15;100395.69;5095150;28;20052;-46
2023/02/14 02:23:03;;;;;;;32.72;22.45;;;;;;;6.09;57.94;100406.81;5095067;28;20047;-47
2023/02/14 02:26:19;;;;;;;32.42;22.83;;;;;;;6.00;57.17;100399.78;5094973;28;20028;-46
2023/02/14 02:29:04;;;;;;;32.33;23.07;;;;;;;6.07;58.36;100400.88;5095072;28;20012;-47
2023/02/14 02:32:01;;;;;;;32.97;23.27;;;;;;;6.23;57.47;100403.03;5093405;28;20027;-46
2023/02/14 02:35:04;;;;;;;35.28;23.15;;;;;;;6.26;56.47;100399.34;5093419;28;20479;-47
2023/02/14 02:38:22;;;;;;;31.52;22.17;;;;;;;6.25;57.26;100395.91;5094454;28;20024;-46
2023/02/14 02:41:34;;;;;;;30.85;21.83;;;;;;;6.21;56.31;100399.72;5080200;28;20119;-47
2023/02/14 02:44:38;;;;;;;31.42;24.27;;;;;;;5.99;57.04;100395.50;5062527;28;20040;-47
2023/02/14 02:48:02;;;;;;;29.45;21.50;;;;;;;5.99;56.85;100392.91;5094592;28;20043;-46
2023/02/14 02:54:14;;;;;;;30.67;22.10;;;;;;;5.94;58.45;100387.22;5094520;28;20043;-46
2023/02/14 02:57:16;;;;;;;32.25;22.10;;;;;;;6.05;57.46;100386.34;5093096;28;20058;-46
2023/02/14 03:00:06;;;;;;;32.58;21.88;;;;;;;6.17;56.87;100375.69;5094324;28;20024;-47
2023/02/14 03:05:56;;;;;;;30.48;21.35;;;;;;;6.24;56.99;100375.19;5094496;28;20046;-47
2023/02/14 03:08:36;;;;;;;33.28;21.85;;;;;;;6.36;56.91;100374.16;5094237;28;20027;-47
2023/02/14 03:11:24;;;;;;;31.55;21.20;;;;;;;6.52;56.28;100371.88;5094028;28;20023;-46
2023/02/14 03:14:29;;;;;;;30.15;19.83;;;;;;;6.67;56.32;100361.88;5092610;28;20069;-47
2023/02/14 03:18:02;;;;;;;24.80;18.45;;;;;;;6.88;55.11;100371.41;5093984;28;20028;-47
2023/02/14 03:20:53;;;;;;;31.10;22.10;;;;;;;6.52;54.28;100371.88;5093900;28;20031;-46
2023/02/14 03:24:10;;;;;;;31.23;22.40;;;;;;;6.25;55.05;100374.22;5094182;28;20036;-47
2023/02/14 03:27:17;;;;;;;27.80;20.45;;;;;;;6.25;56.20;100380.28;5093841;28;20028;-47
2023/02/14 03:30:01;;;;;;;;;;;;;;;6.38;56.23;100370.44;5094215;28;20028;-47
2023/02/14 03:33:16;;;;;;;28.00;18.40;;;;;;;6.59;55.25;100378.19;5093740;28;20396;-46
2023/02/14 03:36:37;;;;;;;27.13;18.70;;;;;;;6.66;55.37;100380.28;5093604;28;20036;-46
2023/02/14 03:39:39;;;;;;;25.90;17.15;;;;;;;6.72;53.69;100379.75;5093586;28;20032;-46
2023/02/14 03:43:13;;;;;;;32.60;18.27;;;;;;;6.58;54.44;100373.97;5090481;28;20060;-47
2023/02/14 03:46:06;;;;;;;31.33;17.95;;;;;;;6.60;54.74;100372.03;5093390;28;20032;-46
2023/02/14 03:48:55;;;;;;;28.45;18.40;;;;;;;6.66;53.99;100373.31;5093489;28;20081;-47
2023/02/14 03:51:33;;;;;;;29.00;18.90;;;;;;;6.55;54.60;100374.22;5091967;28;20020;-47
2023/02/14 03:54:18;;;;;;;25.27;17.50;;;;;;;6.36;55.03;100377.59;5092613;28;20024;-47
2023/02/14 03:57:24;;;;;;;23.50;16.92;;;;;;;6.31;55.29;100384.13;5091849;28;20059;-47
2023/02/14 03:59:53;;;;;;;26.95;17.27;;;;;;;6.34;55.00;100376.06;5091927;28;20468;-46
2023/02/14 04:02:42;;;;;;;25.02;18.10;;;;;;;6.23;55.19;100373.53;5093167;28;20020;-46
2023/02/14 04:05:29;;;;;;;22.27;16.05;;;;;;;6.03;55.03;100377.84;5091292;28;20101;-46
2023/02/14 04:08:03;;;;;;;28.98;19.27;;;;;;;5.71;55.30;100376.91;5091636;28;20123;-46
2023/02/14 04:10:43;;;;;;;28.00;19.23;;;;;;;5.47;55.75;100376.34;5093149;28;20463;-47
2023/02/14 04:13:18;;;;;;;29.50;17.92;;;;;;;5.35;56.56;100379.00;5091491;28;20021;-47
2023/02/14 04:16:04;;;;;;;28.00;17.55;;;;;;;5.25;56.61;100372.91;5092300;28;20028;-47
2023/02/14 04:21:26;;;;;;;24.27;17.88;;;;;;;5.33;57.74;100364.44;5093026;28;20061;-46
2023/02/14 04:24:12;;;;;;;27.05;18.30;;;;;;;5.51;57.08;100365.53;5074580;28;20429;-47
2023/02/14 04:30:03;;;;;;;24.30;15.82;;;;;;;5.43;56.40;100367.94;5092540;28;20124;-46
2023/02/14 04:32:35;;;;;;;30.17;17.52;;;;;;;5.29;56.78;100369.09;5091579;28;20077;-46
2023/02/14 04:35:15;;;;;;;23.63;15.55;;;;;;;5.23;56.93;100361.75;5091179;28;20031;-47
2023/02/14 04:37:57;;;;;;;28.27;17.50;;;;;;;5.24;57.47;100366.03;5091074;28;20032;-47
2023/02/14 04:40:36;;;;;;;29.83;16.60;;;;;;;5.27;57.03;100362.34;5091051;28;20016;-47
2023/02/14 04:43:17;;;;;;;26.15;16.75;;;;;;;5.33;56.88;100361.84;5092273;28;20048;-47
2023/02/14 04:45:50;;;;;;;30.80;18.85;;;;;;;5.31;56.15;100358.53;5090985;28;20121;-46
2023/02/14 04:48:26;;;;;;;28.02;18.65;;;;;;;5.16;56.90;100361.44;5092567;28;20095;-47
2023/02/14 04:51:05;;;;;;;;;;;;;;;5.03;57.21;100354.72;5092658;28;20032;-47
2023/02/14 04:53:48;;;;;;;25.85;17.65;;;;;;;5.07;58.04;100356.97;5091225;28;20308;-47
2023/02/14 04:56:35;;;;;;;28.50;19.40;;;;;;;5.19;58.01;100353.38;5092177;28;20016;-46
2023/02/14 04:59:13;;;;;;;27.50;18.88;;;;;;;5.31;58.54;100351.56;5091025;28;20063;-47
2023/02/14 05:01:46;;;;;;;28.13;18.85;;;;;;;5.36;58.08;100351.19;5090747;28;20116;-46
2023/02/14 05:04:18;;;;;;;29.20;18.27;;;;;;;5.37;58.04;100343.25;5092082;28;20035;-46
2023/02/14 05:06:51;;;;;;;29.92;19.55;;;;;;;5.35;58.33;100358.19;5090715;28;20028;-46
2023/02/14 05:09:26;;;;;;;27.15;19.40;;;;;;;5.30;57.75;100357.72;5091970;28;20024;-46
2023/02/14 05:12:02;;;;;;;29.50;19.00;;;;;;;5.27;58.46;100357.13;5090613;28;20028;-47
2023/02/14 05:14:30;;;;;;;26.63;19.98;;;;;;;5.27;58.40;100357.97;5073731;28;20111;-47
2023/02/14 05:17:12;;;;;;;31.00;19.80;;;;;;;5.20;58.65;100351.59;5090636;28;20424;-47
2023/02/14 05:19:44;;;;;;;25.80;18.38;;;;;;;5.20;58.51;100357.63;5091936;28;20016;-46
2023/02/14 05:22:11;;;;;;;31.73;19.25;;;;;;;5.19;58.82;100356.00;5091806;28;20043;-46
2023/02/14 05:24:38;;;;;;;31.10;19.50;;;;;;;5.19;58.06;100356.00;5090528;28;20027;-46
2023/02/14 05:27:16;;;;;;;28.38;18.58;;;;;;;5.10;58.17;100361.09;5094753;28;20055;-47
2023/02/14 05:29:47;;;;;;;27.52;17.88;;;;;;;5.08;58.95;100360.41;5094696;28;20544;-47
2023/02/14 05:32:18;;;;;;;31.30;19.67;;;;;;;5.07;58.60;100354.38;5095881;28;20497;-46
2023/02/14 05:34:46;;;;;;;29.90;19.08;;;;;;;5.02;58.46;100366.09;5095907;28;20031;-46
2023/02/14 05:37:17;;;;;;;28.20;17.17;;;;;;;5.04;58.66;100362.41;5094363;28;20115;-46
2023/02/14 05:39:54;;;;;;;29.55;18.92;;;;;;;5.00;58.70;100363.63;5095901;28;20028;-47
2023/02/14 05:42:25;;;;;;;26.40;17.30;;;;;;;5.00;58.71;100369.63;5094729;28;20127;-46
2023/02/14 05:45:04;;;;;;;26.25;17.85;;;;;;;4.97;58.25;100361.25;5095834;28;20039;-47
2023/02/14 05:47:32;;;;;;;31.98;17.60;;;;;;;4.91;58.34;100372.16;5095803;28;20020;-46
2023/02/14 05:49:59;;;;;;;29.13;17.35;;;;;;;4.88;58.90;100369.81;5095722;28;20385;-46
2023/02/14 05:52:44;;;;;;;29.88;18.10;;;;;;;4.88;58.33;100370.63;5095646;28;20111;-47
2023/02/14 05:55:11;;;;;;;31.00;18.15;;;;;;;4.79;58.28;100372.19;5094283;28;20025;-46
2023/02/14 05:57:39;;;;;;;33.92;18.65;;;;;;;4.78;59.07;100369.69;5095595;28;20370;-46
2023/02/14 06:00:07;;;;;;;24.98;18.20;;;;;;;4.90;59.28;100368.72;5095464;28;20028;-46
2023/02/14 06:02:33;;;;;;;36.67;18.65;;;;;;;4.91;58.58;100369.53;5095434;28;20077;-46
2023/02/14 06:04:59;;;;;;;30.48;17.50;;;;;;;4.80;58.72;100367.81;5094103;28;20040;-46
2023/02/14 06:07:29;;;;;;;30.38;19.75;;;;;;;4.80;59.67;100368.63;5094030;28;20028;-47
2023/02/14 06:10:17;;;;;;;30.88;18.45;;;;;;;4.79;59.44;100360.97;5095339;28;20032;-46
2023/02/14 06:12:51;;;;;;;25.55;17.90;;;;;;;4.81;59.53;100364.28;5095482;28;20035;-46
2023/02/14 06:15:18;;;;;;;30.65;18.63;;;;;;;4.79;59.05;100360.97;5093784;28;20024;-46
2023/02/14 06:17:53;;;;;;;29.05;21.15;;;;;;;4.73;60.21;100366.66;5093841;28;20032;-47
2023/02/14 06:20:22;;;;;;;26.55;18.17;;;;;;;4.86;60.79;100359.50;5093788;28;20024;-46
2023/02/14 06:22:50;;;;;;;31.00;20.73;;;;;;;5.11;60.57;100363.59;5094960;28;20024;-46
2023/02/14 06:25:17;;;;;;;24.77;18.80;;;;;;;5.36;59.80;100361.59;5095019;28;20091;-46
2023/02/14 06:27:44;;;;;;;30.23;20.38;;;;;;;5.38;58.91;100351.88;5093650;28;20122;-46
2023/02/14 06:30:11;;;;;;;38.90;20.25;;;;;;;5.37;58.84;100358.88;5094866;28;20027;-46
2023/02/14 06:32:38;;;;;;;34.40;19.25;;;;;;;5.36;58.67;100362.41;5093521;28;20081;-46
2023/02/14 06:35:07;;;;;;;27.25;19.35;;;;;;;5.37;58.45;100364.09;5093461;28;20250;-46
2023/02/14 06:37:34;;;;;;;37.33;20.08;;;;;;;5.32;58.42;100366.22;5094036;28;20025;-46
2023/02/14 06:40:00;;;;;;;35.75;19.10;;;;;;;5.19;58.58;100366.41;5093423;28;20028;-46
2023/02/14 06:42:27;;;;;;;33.88;20.02;;;;;;;5.10;58.61;100363.72;5091601;28;20409;-46
2023/02/14 06:44:55;;;;;;;27.23;18.73;;;;;;;5.02;58.10;100368.69;5093307;28;20122;-46
2023/02/14 06:47:25;;;;;;;32.80;18.52;;;;;;;4.94;58.59;100375.34;5094611;28;20043;-47
2023/02/14 06:49:58;;;;;;;29.88;19.98;;;;;;;4.92;58.73;100379.00;5094529;28;20023;-47
2023/02/14 06:52:25;;;;;;;28.60;18.73;;;;;;;4.88;59.35;100380.22;5093207;28;20044;-46
2023/02/14 06:54:52;;;;;;;32.10;19.25;;;;;;;4.96;59.92;100378.63;5093098;28;20024;-46
2023/02/14 06:57:20;;;;;;;29.77;18.30;;;;;;;5.15;58.48;100379.75;5094359;28;20016;-46
2023/02/14 06:59:48;;;;;;;31.85;18.00;;;;;;;5.40;58.03;100383.81;5094386;28;20047;-47
2023/02/14 07:02:15;;;;;;;31.55;19.42;;;;;;;5.68;57.48;100390.22;5094590;28;20102;-46
2023/02/14 07:04:44;;;;;;;38.03;20.27;;;;;;;5.92;56.72;100382.13;5092993;28;20020;-46
2023/02/14 07:07:11;;;;;;;36.63;20.15;;;;;;;6.14;55.97;100383.78;5094228;28;20077;-46
2023/02/14 07:09:38;;;;;;;37.40;20.13;;;;;;;6.38;54.38;100377.47;5092850;28;20202;-46
2023/02/14 07:12:05;;;;;;;28.80;17.17;;;;;;;6.78;54.82;100387.03;5094103;28;20073;-46
2023/02/14 07:14:34;;;;;;;38.45;18.55;;;;;;;7.35;53.80;100387.28;5094037;28;20054;-46
2023/02/14 07:17:00;;;;;;;31.50;19.92;;;;;;;7.92;52.41;100375.09;5094293;28;20028;-46
2023/02/14 07:19:27;;;;;;;36.70;21.38;;;;;;;8.29;50.37;100384.78;5094041;28;20458;-47
2023/02/14 07:21:54;;;;;;;29.77;20.02;;;;;;;8.32;49.74;100381.84;5092570;28;20162;-47
2023/02/14 07:24:43;;;;;;;29.75;20.80;;;;;;;8.44;49.41;100379.09;5093912;28;20025;-47
2023/02/14 07:27:09;;;;;;;38.60;21.05;;;;;;;8.55;49.08;100377.13;5093784;28;20073;-47
2023/02/14 07:29:37;;;;;;;34.00;21.20;;;;;;;8.82;48.97;100382.50;5092493;28;20036;-47
2023/02/14 07:32:20;;;;;;;32.40;20.60;;;;;;;9.08;48.13;100379.97;5092436;28;20085;-47
2023/02/14 07:34:50;;;;;;;31.30;19.67;;;;;;;9.36;47.45;100378.94;5092255;28;20123;-47
2023/02/14 07:37:19;;;;;;;34.90;21.33;;;;;;;9.76;46.91;100382.03;5092135;28;20457;-47
2023/02/14 07:39:59;;;;;;;37.60;21.52;;;;;;;9.99;46.03;100375.28;5092273;28;20065;-47
2023/02/14 07:42:43;;;;;;;30.73;20.02;;;;;;;10.23;45.77;100376.41;5089626;28;20044;-48
2023/02/14 07:45:25;;;;;;;36.10;21.33;;;;;;;10.61;44.85;100370.88;5093390;28;20032;-47
2023/02/14 07:48:06;;;;;;;30.88;21.75;;;;;;;10.59;44.23;100376.28;5093448;28;20028;-47
2023/02/14 07:50:35;;;;;;;32.40;21.67;;;;;;;10.55;44.34;100373.13;5092503;28;20017;-47
2023/02/14 07:53:17;;;;;;;28.92;20.55;;;;;;;9.97;44.85;100376.44;5093213;28;20034;-47
2023/02/14 07:56:08;;;;;;;34.70;21.40;;;;;;;9.47;46.33;100380.47;5093238;28;20028;-47
2023/02/14 07:58:35;;;;;;;28.73;21.33;;;;;;;9.68;46.79;100379.31;5093640;28;20038;-46
2023/02/14 08:01:03;;;;;;;33.00;21.30;;;;;;;9.78;46.93;100378.28;5091822;28;20424;-47
2023/02/14 08:03:30;;;;;;;31.77;22.08;;;;;;;10.07;45.91;100368.44;5093058;28;20453;-47
2023/02/14 08:05:57;;;;;;;38.95;23.05;;;;;;;10.15;46.02;100371.13;5091702;28;20028;-47
2023/02/14 08:08:29;;;;;;;39.58;21.63;;;;;;;10.25;45.63;100376.25;5093008;28;20016;-47
2023/02/14 08:10:56;;;;;;;30.92;21.20;;;;;;;10.48;45.44;100368.66;5091795;28;20081;-47
2023/02/14 08:13:23;;;;;;;34.22;20.63;;;;;;;10.82;45.40;100368.63;5091558;28;20136;-47
2023/02/14 08:16:08;;;;;;;33.42;20.42;;;;;;;11.31;45.07;100367.91;5092861;28;20026;-47
2023/02/14 08:18:37;;;;;;;31.40;21.43;;;;;;;11.71;43.16;100371.50;5092952;28;20042;-47
2023/02/14 08:21:06;;;;;;;30.80;19.63;;;;;;;12.05;42.93;100366.03;5091459;28;20024;-47
2023/02/14 08:23:51;;;;;;;35.03;21.45;;;;;;;12.25;42.54;100363.03;5092759;28;20077;-47
2023/02/14 08:26:32;;;;;;;28.65;21.65;;;;;;;12.57;41.48;100357.63;5092775;28;20482;-48
2023/02/14 08:29:00;;;;;;;31.67;22.20;;;;;;;12.85;40.46;100354.50;5091370;28;20035;-47
2023/02/14 08:31:46;;;;;;;31.48;20.08;;;;;;;12.99;40.85;100356.41;5091272;28;20023;-47
2023/02/14 08:34:14;;;;;;;31.75;21.27;;;;;;;13.12;40.50;100358.47;5092415;28;20548;-47
2023/02/14 08:36:51;;;;;;;32.40;21.58;;;;;;;13.46;39.30;100359.06;5092469;28;20031;-48
2023/02/14 08:39:18;;;;;;;31.83;21.38;;;;;;;13.62;38.72;100358.91;5092133;28;20028;-47
2023/02/14 08:41:44;;;;;;;33.92;20.40;;;;;;;14.06;38.29;100352.06;5091678;28;20155;-47
2023/02/14 08:44:11;;;;;;;33.45;21.42;;;;;;;14.47;37.92;100348.94;5092397;28;20063;-47
2023/02/14 08:46:39;;;;;;;31.85;19.90;;;;;;;15.48;36.29;100351.63;5092358;28;20026;-47
2023/02/14 08:49:09;;;;;;;35.00;18.73;;;;;;;15.82;35.15;100350.09;5091021;28;20033;-47
2023/02/14 08:51:35;;;;;;;32.38;18.15;;;;;;;16.54;34.32;100347.00;5092204;28;20115;-45
2023/02/14 08:54:02;;;;;;;23.25;16.52;;;;;;;17.46;32.70;100344.72;5090820;28;20118;-45
2023/02/14 08:56:30;;;;;;;27.25;17.95;;;;;;;18.31;31.57;100333.34;5090908;28;20027;-46
2023/02/14 08:58:59;;;;;;;21.23;16.85;;;;;;;18.86;30.62;100331.06;5092157;28;20099;-45
2023/02/14 09:01:27;;;;;;;25.42;16.83;;;;;;;19.10;30.50;100334.81;5091844;28;20405;-45
2023/02/14 09:03:55;;;;;;;25.17;18.17;;;;;;;18.75;29.75;100332.53;5092361;28;20035;-46
2023/02/14 09:06:22;;;;;;;23.80;17.15;;;;;;;17.89;30.42;100340.84;5090789;28;20389;-45
2023/02/14 09:08:52;;;;;;;26.25;17.15;;;;;;;17.50;31.41;100335.31;5092036;28;20489;-45
2023/02/14 09:11:21;;;;;;;21.27;15.93;;;;;;;17.50;31.42;100334.50;5091884;28;20031;-45
2023/02/14 09:13:48;;;;;;;24.45;14.88;;;;;;;17.66;31.18;100339.41;5091907;28;20516;-45
2023/02/14 09:16:16;;;;;;;25.52;15.23;;;;;;;17.94;30.96;100335.72;5091879;28;20027;-45
2023/02/14 09:18:44;;;;;;;21.42;15.60;;;;;;;18.06;30.20;100338.56;5090640;28;20024;-45
2023/02/14 09:21:21;;;;;;;20.65;13.77;;;;;;;18.30;29.95;100334.38;5091900;28;20024;-46
2023/02/14 09:23:48;;;;;;;22.70;14.68;;;;;;;18.20;30.03;100326.03;5091936;28;20514;-45
2023/02/14 09:26:17;;;;;;;29.52;14.60;;;;;;;18.29;29.95;100333.56;5091787;28;20421;-45
2023/02/14 09:28:44;;;;;;;21.65;14.52;;;;;;;18.37;29.46;100321.88;5090515;28;20393;-45
2023/02/14 09:31:18;;;;;;;30.85;15.18;;;;;;;18.34;29.82;100324.97;5091765;28;20024;-46
2023/02/14 09:39:21;;;;;;;22.52;13.88;;;;;;;16.00;32.65;100329.22;5092003;28;20400;-45
2023/02/14 09:41:47;;;;;;;19.80;14.00;;;;;;;15.33;33.55;100323.44;5089928;28;20509;-45
2023/02/14 09:44:40;;;;;;;20.60;13.55;;;;;;;14.81;34.85;100329.03;5091775;28;20028;-45
2023/02/14 09:47:39;;;;;;;24.20;12.75;;;;;;;14.85;35.79;100323.19;5090363;28;20028;-45
2023/02/14 09:50:57;;;;;;;22.50;14.57;;;;;;;15.98;34.66;100323.28;5091602;28;20028;-45
2023/02/14 09:53:54;;;;;;;23.40;15.05;;;;;;;17.11;32.03;100323.69;5090124;28;20074;-45
2023/02/14 09:56:41;;;;;;;22.48;13.63;;;;;;;17.87;31.02;100321.66;5090850;28;20066;-46
2023/02/14 09:59:49;;;;;;;24.02;18.60;;;;;;;18.28;30.60;100310.66;5091580;28;20035;-45
2023/02/14 10:03:09;;;;;;;29.55;13.45;;;;;;;19.03;29.35;100306.59;5090086;28;20024;-46
2023/02/14 10:05:54;;;;;;;24.00;13.05;;;;;;;18.86;29.52;100308.97;5091488;28;20489;-46
2023/02/14 10:08:51;;;;;;;25.45;13.55;;;;;;;19.10;28.84;100308.19;5091423;28;20440;-45
2023/02/14 10:11:23;;;;;;;23.95;13.35;;;;;;;18.53;30.40;100313.44;5090126;28;20482;-46
2023/02/14 10:14:14;;;;;;;23.80;12.65;;;;;;;18.27;33.16;100308.22;5094535;28;20023;-45
2023/02/14 10:17:09;;;;;;;19.85;14.23;;;;;;;18.40;31.51;100305.50;5095208;28;20452;-45
2023/02/14 10:20:08;;;;;;;20.42;13.40;;;;;;;18.37;33.98;100303.25;5095223;28;20032;-45
2023/02/14 10:23:17;;;;;;;27.20;14.40;;;;;;;18.15;31.47;100303.56;5071147;28;20047;-45
2023/02/14 10:26:22;;;;;;;22.45;14.30;;;;;;;18.81;30.54;100301.63;5095002;28;20035;-45
2023/02/14 10:28:56;;;;;;;23.67;12.73;;;;;;;19.18;30.49;100296.47;5094943;28;20074;-46
2023/02/14 10:31:49;;;;;;;23.70;14.13;;;;;;;20.94;28.01;100291.38;5094958;28;20494;-46
2023/02/14 10:34:46;;;;;;;22.08;14.75;;;;;;;;;;5094707;28;20043;-46
2023/02/14 10:37:15;;;;;;;22.75;14.13;;;;;;;23.64;24.13;100269.34;5094762;28;20024;-46
2023/02/14 10:40:19;;;;;;;22.08;15.43;;;;;;;24.06;23.45;100267.97;5093447;28;20119;-46
2023/02/14 10:43:31;;;;;;;19.50;15.30;;;;;;;23.95;22.88;100266.25;5093115;28;20135;-47
2023/02/14 10:46:23;;;;;;;24.30;15.75;;;;;;;23.49;23.63;100263.75;5094725;28;20579;-46
2023/02/14 10:48:52;;;;;;;21.88;14.57;;;;;;;23.36;23.56;100269.44;5094646;28;20028;-46
2023/02/14 10:51:35;;;;;;;24.00;15.25;;;;;;;23.06;24.44;100262.56;5093194;28;20020;-46
2023/02/14 10:54:21;;;;;;;21.90;14.63;;;;;;;23.62;23.51;100258.03;5094550;28;20061;-46
2023/02/14 10:57:23;;;;;;;;;;;;;;;23.33;23.16;100258.16;5093559;28;20370;-46
2023/02/14 11:00:00;;;;;;;26.15;15.85;;;;;;;22.69;24.03;100257.66;5094763;28;20387;-46
2023/02/14 11:02:43;;;;;;;25.17;15.20;;;;;;;22.32;24.23;100252.75;5076224;28;20032;-46
2023/02/14 11:05:48;;;;;;;26.38;16.95;;;;;;;22.21;24.25;100240.97;5094266;28;20493;-46
2023/02/14 11:08:43;;;;;;;24.38;15.90;;;;;;;22.77;24.97;100240.41;5092446;28;20117;-46
2023/02/14 11:11:40;;;;;;;23.10;15.48;;;;;;;23.83;23.00;100232.31;5094214;28;20024;-46
2023/02/14 11:14:45;;;;;;;23.13;15.30;;;;;;;24.55;22.51;100232.28;5092734;28;20034;-46
2023/02/14 11:17:43;;;;;;;35.78;16.38;;;;;;;25.31;22.20;100232.06;5031770;28;20031;-47
2023/02/14 11:20:29;;;;;;;20.67;14.57;;;;;;;25.80;21.38;100222.91;5015076;28;20030;-46
2023/02/14 11:23:31;;;;;;;20.35;13.90;;;;;;;26.31;20.56;100209.59;5031479;28;20400;-47
2023/02/14 11:25:59;;;;;;;24.02;13.43;;;;;;;26.56;19.64;100210.69;4992759;28;20038;-47
2023/02/14 11:28:26;;;;;;;18.33;12.52;;;;;;;26.79;18.28;100207.50;5031533;28;20642;-46
2023/02/14 11:30:56;;;;;;;18.55;12.48;;;;;;;26.75;19.14;100202.91;5031543;28;20033;-46
2023/02/14 11:33:44;;;;;;;23.45;12.32;;;;;;;26.55;18.85;100206.38;5031449;28;20029;-46
2023/02/14 11:36:16;;;;;;;15.65;11.43;;;;;;;26.82;17.59;100196.19;5014583;28;20045;-46
2023/02/14 11:38:45;;;;;;;18.92;12.63;;;;;;;26.84;17.73;100201.28;5031355;28;20029;-46
2023/02/14 11:41:14;;;;;;;17.80;12.75;;;;;;;27.02;18.00;100198.00;5014642;28;20033;-46
2023/02/14 11:43:43;;;;;;;16.17;12.48;;;;;;;26.89;18.02;100185.13;5030872;28;20525;-46
2023/02/14 11:46:32;;;;;;;15.57;12.90;;;;;;;27.07;17.68;100186.44;5031217;28;20025;-46
2023/02/14 11:49:02;;;;;;;18.83;11.23;;;;;;;27.38;17.61;100181.78;5089375;28;20051;-46
2023/02/14 11:51:44;;;;;;;16.45;10.88;;;;;;;27.40;17.75;100178.81;5093338;28;20550;-46
2023/02/14 11:54:33;;;;;;;21.15;12.25;;;;;;;26.65;18.87;100179.50;5093269;28;20024;-46
2023/02/14 11:57:18;;;;;;;18.05;12.20;;;;;;;26.40;19.67;100173.00;5093265;28;20035;-46
2023/02/14 11:59:49;;;;;;;17.73;13.05;;;;;;;26.06;19.80;100175.41;5093330;28;20028;-46
2023/02/14 12:02:31;;;;;;;19.25;12.27;;;;;;;25.94;20.02;100164.88;5093146;28;20398;-46
2023/02/14 12:05:34;;;;;;;20.33;12.00;;;;;;;25.93;19.47;100165.13;5093167;28;20024;-47
2023/02/14 12:08:22;;;;;;;18.30;10.63;;;;;;;26.09;18.12;100164.09;5091748;28;20031;-46
2023/02/14 12:11:33;;;;;;;15.30;11.35;;;;;;;25.64;18.56;100169.06;5093054;28;20070;-46
2023/02/14 12:14:41;;;;;;;16.20;11.20;;;;;;;25.57;19.10;100165.00;5091581;28;20038;-46
2023/02/14 12:17:30;;;;;;;20.65;11.55;;;;;;;25.66;19.54;100156.16;5092930;28;20027;-46
2023/02/14 12:20:38;;;;;;;31.65;12.57;;;;;;;25.95;18.46;100153.03;5091963;28;20492;-46
2023/02/14 12:23:26;;;;;;;16.60;10.95;;;;;;;26.23;19.11;100145.53;5093145;28;20035;-46
2023/02/14 12:26:59;;;;;;;25.38;11.40;;;;;;;26.09;18.47;100151.44;5090898;28;20032;-46
2023/02/14 12:29:54;;;;;;;15.18;10.48;;;;;;;25.70;18.54;100133.03;5092654;28;20024;-46
2023/02/14 12:32:30;;;;;;;30.17;12.10;;;;;;;25.90;19.40;100134.22;5091394;28;20034;-46
2023/02/14 12:35:14;;;;;;;17.63;9.57;;;;;;;26.06;18.76;100130.47;5091954;28;20569;-46
2023/02/14 12:38:09;;;;;;;15.95;10.93;;;;;;;26.36;18.82;100126.16;5092850;28;20406;-46
2023/02/14 12:40:53;;;;;;;14.63;10.77;;;;;;;26.81;17.97;100124.50;5091197;28;20421;-46